createdAt,value
2019-02-26T00:00:58.688Z,4.80
2019-02-26T00:03:38.778Z,4.80
2019-02-26T00:06:20.562Z,4.70
2019-02-26T00:09:03.196Z,4.60
2019-02-26T00:11:43.413Z,4.60
2019-02-26T00:14:24.766Z,4.50
2019-02-26T00:17:08.663Z,4.60
2019-02-26T00:19:47.259Z,4.50
2019-02-26T00:22:26.510Z,4.50
2019-02-26T00:25:10.449Z,4.50
2019-02-26T00:27:52.432Z,4.50
2019-02-26T00:30:35.702Z,4.40
2019-02-26T00:33:16.808Z,4.30
2019-02-26T00:35:56.048Z,4.20
2019-02-26T00:38:37.551Z,4.20
2019-02-26T00:41:20.302Z,4.20
2019-02-26T00:43:59.855Z,4.20
2019-02-26T00:46:39.885Z,4.20
2019-02-26T00:49:21.461Z,4.20
2019-02-26T00:52:00.458Z,4.20
2019-02-26T00:54:41.015Z,4.10
2019-02-26T00:57:20.345Z,4.00
2019-02-26T01:00:00.745Z,4.00
2019-02-26T01:02:40.378Z,3.90
2019-02-26T01:05:19.843Z,3.80
2019-02-26T01:07:59.124Z,3.90
2019-02-26T01:10:39.853Z,4.00
2019-02-26T01:13:20.654Z,4.00
2019-02-26T01:16:00.816Z,4.00
2019-02-26T01:18:42.251Z,4.00
2019-02-26T01:21:26.228Z,3.90
2019-02-26T01:24:04.726Z,3.90
2019-02-26T01:26:45.088Z,3.90
2019-02-26T01:29:27.635Z,3.80
2019-02-26T01:32:10.981Z,3.80
2019-02-26T01:34:49.540Z,3.70
2019-02-26T01:37:30.023Z,3.70
2019-02-26T01:40:13.742Z,3.70
2019-02-26T01:42:55.617Z,3.60
2019-02-26T01:45:34.851Z,3.60
2019-02-26T01:48:16.672Z,3.60
2019-02-26T01:50:57.440Z,3.60
2019-02-26T01:53:37.556Z,3.50
2019-02-26T01:56:17.729Z,3.50
2019-02-26T01:59:02.101Z,3.40
2019-02-26T02:01:42.066Z,3.50
2019-02-26T02:04:20.793Z,3.40
2019-02-26T02:07:01.403Z,3.50
2019-02-26T02:09:46.563Z,3.60
2019-02-26T03:55:06.786Z,3.40
2019-02-26T03:57:47.615Z,3.40
2019-02-26T04:00:28.363Z,3.30
2019-02-26T04:03:09.232Z,3.20
2019-02-26T04:06:02.918Z,3.10
2019-02-26T04:08:51.080Z,3.10
2019-02-26T04:11:31.089Z,3.10
2019-02-26T04:14:12.642Z,3.00
2019-02-26T04:16:55.228Z,2.90
2019-02-26T04:19:34.870Z,2.90
2019-02-26T04:22:28.128Z,2.90
2019-02-26T04:25:57.631Z,2.80
2019-02-26T04:28:57.157Z,2.90
2019-02-26T04:32:23.254Z,2.90
2019-02-26T04:35:36.973Z,2.80
2019-02-26T04:39:02.274Z,2.80
2019-02-26T04:42:19.860Z,2.70
2019-02-26T04:45:49.096Z,2.80
2019-02-26T04:48:34.371Z,2.80
2019-02-26T04:51:14.077Z,3.00
2019-02-26T04:53:56.139Z,3.20
2019-02-26T04:56:40.116Z,3.20
2019-02-26T04:59:19.111Z,3.20
2019-02-26T05:02:01.663Z,3.20
2019-02-26T05:04:42.102Z,3.20
2019-02-26T05:07:21.694Z,3.20
2019-02-26T05:10:02.670Z,3.10
2019-02-26T05:12:42.528Z,3.10
2019-02-26T05:15:26.519Z,3.00
2019-02-26T05:18:05.198Z,3.00
2019-02-26T05:20:48.445Z,3.10
2019-02-26T05:23:31.101Z,3.20
2019-02-26T05:26:11.555Z,3.20
2019-02-26T05:28:51.675Z,3.20
2019-02-26T05:31:33.159Z,3.30
2019-02-26T05:34:14.755Z,3.40
2019-02-26T05:36:53.654Z,3.50
2019-02-26T05:39:33.450Z,3.70
2019-02-26T05:42:12.992Z,4.00
2019-02-26T05:44:54.625Z,4.30
2019-02-26T05:47:33.337Z,4.50
2019-02-26T05:50:16.311Z,4.70
2019-02-26T05:52:57.992Z,4.90
2019-02-26T05:55:36.648Z,5.00
2019-02-26T05:58:19.349Z,5.20
2019-02-26T06:00:58.369Z,5.20
2019-02-26T06:03:39.063Z,5.40
2019-02-26T06:06:19.794Z,5.50
2019-02-26T06:09:02.281Z,5.50
2019-02-26T06:11:49.355Z,5.40
2019-02-26T06:14:27.659Z,5.30
2019-02-26T06:17:09.706Z,5.20
2019-02-26T06:19:50.574Z,5.10
2019-02-26T06:22:31.809Z,5.00
2019-02-26T06:25:18.355Z,4.90
2019-02-26T06:27:54.962Z,4.90
2019-02-26T06:30:35.115Z,4.80
2019-02-26T06:33:16.377Z,4.90
2019-02-26T06:35:59.878Z,4.90
2019-02-26T06:38:39.456Z,5.00
2019-02-26T06:41:19.749Z,5.00
2019-02-26T06:43:59.562Z,5.10
2019-02-26T06:46:39.901Z,5.10
2019-02-26T06:49:21.971Z,5.20
2019-02-26T06:52:01.399Z,5.30
2019-02-26T06:54:41.239Z,5.40
2019-02-26T06:57:21.172Z,5.60
2019-02-26T07:00:02.269Z,5.70
2019-02-26T07:02:46.169Z,5.80
2019-02-26T07:05:25.167Z,5.90
2019-02-26T07:08:06.671Z,6.20
2019-02-26T07:10:46.591Z,6.70
2019-02-26T07:13:26.596Z,7.20
2019-02-26T07:16:06.434Z,7.60
2019-02-26T07:18:46.273Z,7.70
2019-02-26T07:21:26.339Z,8.00
2019-02-26T07:24:07.701Z,8.30
2019-02-26T07:26:49.184Z,8.40
2019-02-26T07:29:32.864Z,8.40
2019-02-26T07:32:12.331Z,8.50
2019-02-26T07:34:53.361Z,8.50
2019-02-26T07:37:36.311Z,8.60
2019-02-26T07:40:18.537Z,8.80
2019-02-26T07:42:59.859Z,9.00
2019-02-26T07:45:39.994Z,9.10
2019-02-26T07:48:23.852Z,9.30
2019-02-26T07:51:06.887Z,9.80
2019-02-26T07:53:51.667Z,10.40
2019-02-26T07:56:32.746Z,12.20
2019-02-26T07:59:13.093Z,14.30
2019-02-26T08:01:53.538Z,16.00
2019-02-26T08:04:36.343Z,16.90
2019-02-26T08:07:16.597Z,17.80
2019-02-26T08:09:56.414Z,16.60
2019-02-26T08:12:38.080Z,15.80
2019-02-26T08:15:17.797Z,15.20
2019-02-26T08:18:00.582Z,15.10
2019-02-26T08:20:40.230Z,14.90
2019-02-26T08:23:21.657Z,15.00
2019-02-26T08:26:18.085Z,15.40
2019-02-26T08:28:57.454Z,15.60
2019-02-26T08:31:36.947Z,16.50
2019-02-26T08:34:16.661Z,17.00
2019-02-26T08:36:57.237Z,16.70
2019-02-26T08:39:38.015Z,16.60
2019-02-26T08:42:21.321Z,16.10
2019-02-26T08:45:00.778Z,15.10
2019-02-26T08:47:42.171Z,14.30
2019-02-26T08:50:21.994Z,13.60
2019-02-26T08:53:01.599Z,13.30
2019-02-26T08:55:41.633Z,12.90
2019-02-26T08:58:21.074Z,13.00
2019-02-26T09:01:00.558Z,13.20
2019-02-26T09:03:41.025Z,13.50
2019-02-26T09:06:20.680Z,15.60
2019-02-26T09:09:02.689Z,18.00
2019-02-26T09:11:44.167Z,19.50
2019-02-26T09:14:25.202Z,20.20
2019-02-26T09:17:05.180Z,19.70
2019-02-26T09:19:44.815Z,19.10
2019-02-26T09:22:26.665Z,18.50
2019-02-26T09:25:07.317Z,18.60
2019-02-26T09:27:47.058Z,18.10
2019-02-26T09:30:28.193Z,17.70
2019-02-26T09:33:09.061Z,17.50
2019-02-26T09:35:50.298Z,16.50
2019-02-26T09:38:31.323Z,15.90
2019-02-26T09:41:11.857Z,15.80
2019-02-26T09:43:52.493Z,16.50
2019-02-26T09:46:35.811Z,16.70
2019-02-26T09:49:13.272Z,16.50
2019-02-26T09:51:54.493Z,16.70
2019-02-26T09:54:37.749Z,17.10
2019-02-26T09:57:17.581Z,18.50
2019-02-26T10:00:00.050Z,19.60
2019-02-26T10:02:40.131Z,20.10
2019-02-26T10:05:20.689Z,20.10
2019-02-26T10:08:03.480Z,19.10
2019-02-26T10:10:41.985Z,19.00
2019-02-26T10:13:23.269Z,19.90
2019-02-26T10:16:04.470Z,20.30
2019-02-26T10:18:45.012Z,21.40
2019-02-26T10:21:25.637Z,21.40
2019-02-26T10:24:05.170Z,21.90
2019-02-26T10:26:44.987Z,21.70
2019-02-26T10:29:24.498Z,22.30
2019-02-26T10:32:04.214Z,23.30
2019-02-26T10:34:43.958Z,24.00
2019-02-26T10:37:23.766Z,24.20
2019-02-26T10:40:03.606Z,24.50
2019-02-26T10:42:46.106Z,25.00
2019-02-26T10:45:26.835Z,24.00
2019-02-26T10:48:08.832Z,23.30
2019-02-26T10:50:51.763Z,22.90
2019-02-26T10:53:30.382Z,22.90
2019-02-26T10:56:10.055Z,23.20
2019-02-26T10:58:49.587Z,23.80
2019-02-26T11:01:31.036Z,24.50
2019-02-26T11:04:10.619Z,24.60
2019-02-26T11:06:50.132Z,24.80
2019-02-26T11:09:31.917Z,23.50
2019-02-26T11:12:11.315Z,21.50
2019-02-26T11:14:51.452Z,19.40
2019-02-26T11:17:39.507Z,17.90
2019-02-26T11:20:22.338Z,17.40
2019-02-26T11:23:04.146Z,18.00
2019-02-26T11:25:45.037Z,19.50
2019-02-26T11:28:29.735Z,20.80
2019-02-26T11:31:09.458Z,21.20
2019-02-26T11:33:56.389Z,21.90
2019-02-26T11:36:36.543Z,21.70
2019-02-26T11:39:16.528Z,22.20
2019-02-26T11:41:58.653Z,23.30
2019-02-26T11:44:37.827Z,22.70
2019-02-26T11:47:18.414Z,21.80
2019-02-26T11:49:59.694Z,21.20
2019-02-26T11:52:40.141Z,21.80
2019-02-26T11:55:21.094Z,22.50
2019-02-26T11:58:05.613Z,22.80
2019-02-26T12:00:50.622Z,23.50
2019-02-26T12:03:34.149Z,22.50
2019-02-26T12:06:15.239Z,20.50
2019-02-26T12:08:54.947Z,19.20
2019-02-26T12:11:37.699Z,18.50
2019-02-26T12:14:19.482Z,16.80
2019-02-26T12:17:02.631Z,16.30
2019-02-26T12:19:42.239Z,16.30
2019-02-26T12:22:22.755Z,16.10
2019-02-26T12:25:05.747Z,15.90
2019-02-26T12:27:45.727Z,15.80
2019-02-26T12:30:26.469Z,15.70
2019-02-26T12:33:07.703Z,15.50
2019-02-26T12:35:47.368Z,15.40
2019-02-26T12:38:27.122Z,15.20
2019-02-26T12:41:11.584Z,15.10
2019-02-26T12:43:50.345Z,15.00
2019-02-26T12:46:31.086Z,15.00
2019-02-26T12:49:12.647Z,14.70
2019-02-26T12:51:53.945Z,14.60
2019-02-26T12:54:37.816Z,14.50
2019-02-26T12:57:19.093Z,14.60
2019-02-26T12:59:57.616Z,14.60
2019-02-26T13:02:40.007Z,14.30
2019-02-26T13:05:23.044Z,14.40
2019-02-26T13:08:03.288Z,14.50
2019-02-26T13:10:49.718Z,14.40
2019-02-26T13:13:32.265Z,14.50
2019-02-26T13:16:13.019Z,14.60
2019-02-26T13:18:58.605Z,14.70
2019-02-26T13:21:35.873Z,14.80
2019-02-26T13:24:17.911Z,14.80
2019-02-26T13:26:59.572Z,14.80
2019-02-26T13:29:47.582Z,14.70
2019-02-26T13:32:25.916Z,14.50
2019-02-26T13:35:07.390Z,14.40
2019-02-26T13:37:45.020Z,14.40
2019-02-26T13:40:24.936Z,14.40
2019-02-26T13:45:46.471Z,14.40
2019-02-26T13:48:26.360Z,14.50
2019-02-26T13:51:06.195Z,14.80
2019-02-26T13:53:49.466Z,14.80
2019-02-26T13:56:29.212Z,14.60
2019-02-26T13:59:10.520Z,14.50
2019-02-26T14:01:51.704Z,14.60
2019-02-26T14:04:31.609Z,14.60
2019-02-26T14:07:11.864Z,14.40
2019-02-26T14:09:53.023Z,14.40
2019-02-26T14:12:32.935Z,14.30
2019-02-26T14:15:17.415Z,14.30
2019-02-26T14:17:56.809Z,14.20
2019-02-26T14:20:36.831Z,14.10
2019-02-26T14:23:16.335Z,14.20
2019-02-26T14:25:57.323Z,14.20
2019-02-26T14:28:37.155Z,14.20
2019-02-26T14:31:16.713Z,14.20
2019-02-26T14:33:56.283Z,14.00
2019-02-26T14:36:38.113Z,13.90
2019-02-26T14:39:17.953Z,13.90
2019-02-26T14:42:00.624Z,13.80
2019-02-26T14:44:42.353Z,13.80
2019-02-26T14:47:22.300Z,13.70
2019-02-26T14:50:01.698Z,13.70
2019-02-26T14:52:41.754Z,13.50
2019-02-26T14:55:22.851Z,13.50
2019-02-26T14:58:05.841Z,13.40
2019-02-26T15:00:57.163Z,13.30
2019-02-26T15:03:29.008Z,13.20
2019-02-26T15:06:09.079Z,13.20
2019-02-26T15:08:48.907Z,13.10
2019-02-26T15:11:40.781Z,13.10
2019-02-26T15:14:21.516Z,13.00
2019-02-26T15:17:02.088Z,13.00
2019-02-26T15:19:49.587Z,12.90
2019-02-26T15:22:23.910Z,12.80
2019-02-26T15:25:04.391Z,12.70
2019-02-26T15:27:44.603Z,12.60
2019-02-26T15:30:24.940Z,12.60
2019-02-26T15:33:10.968Z,12.50
2019-02-26T15:35:46.956Z,12.40
2019-02-26T15:38:27.619Z,12.30
2019-02-26T15:41:08.251Z,12.30
2019-02-26T15:43:48.236Z,12.20
2019-02-26T15:46:28.642Z,12.20
2019-02-26T15:49:13.578Z,12.10
2019-02-26T15:51:53.968Z,12.00
2019-02-26T15:54:35.227Z,12.00
2019-02-26T15:57:16.228Z,11.90
2019-02-26T15:59:56.082Z,11.90
2019-02-26T16:02:36.877Z,11.90
2019-02-26T16:05:17.263Z,12.00
2019-02-26T16:07:56.976Z,11.90
2019-02-26T16:10:36.823Z,11.80
2019-02-26T16:13:16.657Z,11.80
2019-02-26T16:15:56.572Z,11.70
2019-02-26T16:18:36.292Z,11.60
2019-02-26T16:21:18.678Z,11.80
2019-02-26T16:23:58.036Z,11.80
2019-02-26T16:26:38.482Z,11.90
2019-02-26T16:29:20.089Z,11.90
2019-02-26T16:32:00.023Z,11.80
2019-02-26T16:34:39.768Z,11.70
2019-02-26T16:37:19.946Z,11.60
2019-02-26T16:39:59.618Z,11.50
2019-02-26T16:42:39.762Z,11.50
2019-02-26T16:45:21.455Z,11.50
2019-02-26T16:48:01.456Z,11.50
2019-02-26T16:50:41.171Z,11.60
2019-02-26T16:53:23.020Z,11.60
2019-02-26T16:56:02.920Z,11.50
2019-02-26T16:58:42.832Z,11.60
2019-02-26T17:01:22.740Z,11.60
2019-02-26T17:04:03.117Z,11.50
2019-02-26T17:06:43.134Z,11.40
2019-02-26T17:09:23.400Z,11.40
2019-02-26T17:12:03.400Z,11.30
2019-02-26T17:14:43.555Z,11.30
2019-02-26T17:17:23.268Z,11.20
2019-02-26T17:20:03.040Z,11.20
2019-02-26T17:22:45.013Z,11.20
2019-02-26T17:25:28.873Z,11.20
2019-02-26T17:28:09.464Z,11.10
2019-02-26T17:30:53.065Z,11.10
2019-02-26T17:33:33.009Z,11.10
2019-02-26T17:36:13.134Z,11.00
2019-02-26T17:38:53.059Z,11.00
2019-02-26T17:41:33.111Z,10.90
2019-02-26T17:44:12.915Z,10.90
2019-02-26T17:46:55.191Z,10.90
2019-02-26T17:49:36.279Z,10.80
2019-02-26T17:52:17.034Z,10.80
2019-02-26T17:54:56.875Z,10.80
2019-02-26T17:57:39.183Z,10.80
2019-02-26T18:00:21.594Z,10.70
2019-02-26T18:03:06.389Z,10.60
2019-02-26T18:05:51.285Z,10.60
2019-02-26T18:08:25.680Z,10.60
2019-02-26T18:11:05.611Z,10.60
2019-02-26T18:13:45.858Z,10.50
2019-02-26T18:16:25.891Z,10.60
2019-02-26T18:19:12.130Z,10.60
2019-02-26T18:21:51.741Z,10.60
2019-02-26T18:24:32.928Z,10.60
2019-02-26T18:27:12.856Z,10.50
2019-02-26T18:29:53.930Z,10.50
2019-02-26T18:32:33.802Z,10.40
2019-02-26T18:35:14.085Z,10.40
2019-02-26T18:37:55.508Z,10.10
2019-02-26T18:40:35.791Z,10.10
2019-02-26T18:43:15.760Z,10.00
2019-02-26T18:45:56.157Z,10.00
2019-02-26T18:48:36.290Z,9.90
2019-02-26T18:51:16.404Z,9.80
2019-02-26T18:53:56.250Z,9.70
2019-02-26T18:56:38.697Z,9.60
2019-02-26T18:59:21.244Z,9.60
2019-02-26T19:02:03.524Z,9.50
2019-02-26T19:04:43.609Z,9.40
2019-02-26T19:07:23.815Z,9.30
2019-02-26T19:10:03.841Z,9.20
2019-02-26T19:12:44.227Z,9.10
2019-02-26T19:15:25.191Z,9.00
2019-02-26T19:18:05.594Z,8.90
2019-02-26T19:20:48.848Z,8.80
2019-02-26T19:23:31.447Z,8.70
2019-02-26T19:26:13.515Z,8.60
2019-02-26T19:28:53.714Z,8.40
2019-02-26T19:31:33.842Z,8.30
2019-02-26T19:34:13.957Z,8.30
2019-02-26T19:36:53.731Z,8.30
2019-02-26T19:39:34.287Z,8.30
2019-02-26T19:42:17.374Z,8.20
2019-02-26T19:44:59.099Z,8.10
2019-02-26T19:47:39.028Z,8.00
2019-02-26T19:50:19.082Z,7.90
2019-02-26T19:53:02.271Z,7.90
2019-02-26T19:55:41.819Z,7.80
2019-02-26T19:58:21.690Z,7.80
2019-02-26T20:01:01.655Z,7.70
2019-02-26T20:03:42.765Z,7.60
2019-02-26T20:06:23.576Z,7.60
2019-02-26T20:09:06.527Z,7.60
2019-02-26T20:11:48.758Z,7.50
2019-02-26T20:14:28.974Z,7.40
2019-02-26T20:17:14.694Z,7.30
2019-02-26T20:19:52.766Z,7.20
2019-02-26T20:22:41.246Z,7.10
2019-02-26T20:25:21.220Z,7.10
2019-02-26T20:28:05.385Z,7.00
2019-02-26T20:30:42.922Z,7.00
2019-02-26T20:33:24.292Z,7.00
2019-02-26T20:36:04.053Z,7.00
2019-02-26T20:38:44.411Z,6.90
2019-02-26T20:41:24.276Z,6.90
2019-02-26T20:44:05.326Z,6.90
2019-02-26T20:46:45.534Z,6.80
2019-02-26T20:49:28.447Z,6.80
2019-02-26T20:52:12.451Z,6.70
2019-02-26T20:54:54.499Z,6.70
2019-02-26T20:57:37.727Z,6.70
2019-02-26T21:00:18.849Z,6.70
2019-02-26T21:02:58.849Z,6.60
2019-02-26T21:05:44.639Z,6.60
2019-02-26T21:08:24.851Z,6.60
2019-02-26T21:11:04.695Z,6.40
2019-02-26T21:13:47.093Z,6.40
2019-02-26T21:16:27.106Z,6.30
2019-02-26T21:19:06.983Z,6.20
2019-02-26T21:21:49.108Z,6.20
2019-02-26T21:24:31.935Z,6.20
2019-02-26T21:27:12.347Z,6.20
2019-02-26T21:29:52.537Z,6.10
2019-02-26T21:32:32.985Z,6.10
2019-02-26T21:35:13.139Z,6.10
2019-02-26T21:37:53.459Z,6.10
2019-02-26T21:40:33.279Z,6.00
2019-02-26T21:43:13.320Z,6.00
2019-02-26T21:45:53.232Z,6.00
2019-02-26T21:48:36.547Z,5.90
2019-02-26T21:51:14.545Z,5.80
2019-02-26T21:53:57.734Z,5.70
2019-02-26T21:56:37.804Z,5.70
2019-02-26T21:59:19.637Z,5.60
2019-02-26T22:02:03.794Z,5.50
2019-02-26T22:04:43.995Z,5.50
2019-02-26T22:07:24.018Z,5.40
2019-02-26T22:10:07.094Z,5.40
2019-02-26T22:12:46.101Z,5.40
2019-02-26T22:15:25.970Z,5.40
2019-02-26T22:18:05.913Z,5.40
2019-02-26T22:20:47.522Z,5.40
2019-02-26T22:23:29.298Z,5.30
2019-02-26T22:26:10.369Z,5.30
2019-02-26T22:28:53.395Z,5.20
2019-02-26T22:31:32.969Z,5.20
2019-02-26T22:34:12.956Z,5.10
2019-02-26T22:36:54.693Z,5.10
2019-02-26T22:39:35.441Z,5.00
2019-02-26T22:42:16.928Z,5.00
2019-02-26T22:44:56.810Z,4.90
2019-02-26T22:47:40.225Z,4.90
2019-02-26T22:50:18.327Z,4.80
2019-02-26T22:52:58.408Z,4.80
2019-02-26T22:55:38.287Z,4.80
2019-02-26T22:58:18.057Z,4.70
2019-02-26T23:01:30.459Z,4.60
2019-02-26T23:04:11.131Z,4.60
2019-02-26T23:06:51.058Z,4.60
2019-02-26T23:09:33.673Z,4.60
2019-02-26T23:12:13.315Z,4.60
2019-02-26T23:14:53.647Z,4.50
2019-02-26T23:17:33.522Z,4.40
2019-02-26T23:20:13.240Z,4.40
2019-02-26T23:22:55.594Z,4.40
2019-02-26T23:25:36.067Z,4.40
2019-02-26T23:28:21.994Z,4.40
2019-02-26T23:31:01.473Z,4.40
2019-02-26T23:33:41.816Z,4.30
2019-02-26T23:36:22.117Z,4.20
2019-02-26T23:39:01.429Z,4.20
2019-02-26T23:41:42.449Z,4.20
2019-02-26T23:44:21.888Z,4.10
2019-02-26T23:47:02.054Z,4.10
2019-02-26T23:49:42.148Z,4.10
2019-02-26T23:52:22.019Z,4.00
2019-02-26T23:55:01.251Z,4.00
2019-02-26T23:57:41.588Z,4.00
